createdAt,value
2022-09-07T00:00:51.378Z,19.23
2022-09-07T00:01:51.876Z,19.22
2022-09-07T00:02:52.203Z,19.19
2022-09-07T00:03:52.668Z,19.22
2022-09-07T00:04:52.507Z,19.16
2022-09-07T00:05:52.951Z,19.24
2022-09-07T00:06:53.904Z,19.23
2022-09-07T00:07:54.415Z,19.19
2022-09-07T00:08:54.344Z,19.24
2022-09-07T00:09:54.978Z,19.24
2022-09-07T00:10:55.667Z,19.23
2022-09-07T00:11:55.882Z,19.26
2022-09-07T00:12:56.391Z,19.23
2022-09-07T00:13:57.017Z,19.22
2022-09-07T00:14:57.254Z,19.2
2022-09-07T00:15:58.237Z,19.22
2022-09-07T00:16:58.451Z,19.23
2022-09-07T00:17:58.377Z,19.23
2022-09-07T00:18:59.314Z,19.32
2022-09-07T00:20:00.523Z,19.24
2022-09-07T00:21:00.727Z,19.34
2022-09-07T00:22:01.655Z,19.29
2022-09-07T00:23:02.565Z,19.3
2022-09-07T00:24:03.475Z,19.27
2022-09-07T00:25:03.419Z,19.26
2022-09-07T00:26:04.419Z,19.34
2022-09-07T00:27:05.049Z,19.3
2022-09-07T00:28:04.979Z,19.35
2022-09-07T00:29:05.619Z,19.32
2022-09-07T00:30:06.576Z,19.24
2022-09-07T00:31:07.601Z,19.23
2022-09-07T00:32:07.489Z,19.26
2022-09-07T00:33:08.114Z,19.29
2022-09-07T00:34:09.046Z,19.34
2022-09-07T00:35:09.961Z,19.32
2022-09-07T00:36:11.283Z,19.3
2022-09-07T00:37:11.535Z,19.34
2022-09-07T00:38:12.044Z,19.32
2022-09-07T00:39:12.255Z,19.34
2022-09-07T00:40:12.726Z,19.41
2022-09-07T00:41:13.092Z,19.45
2022-09-07T00:42:13.736Z,19.37
2022-09-07T00:43:14.956Z,19.32
2022-09-07T00:44:15.163Z,19.45
2022-09-07T00:45:15.388Z,19.37
2022-09-07T00:46:15.862Z,19.42
2022-09-07T00:47:15.943Z,19.42
2022-09-07T00:48:17.177Z,19.44
2022-09-07T00:49:18.146Z,19.44
2022-09-07T00:50:18.347Z,19.52
2022-09-07T00:51:18.575Z,19.57
2022-09-07T00:52:19.503Z,19.42
2022-09-07T00:53:20.011Z,19.45
2022-09-07T00:54:19.918Z,19.52
2022-09-07T00:55:21.129Z,19.44
2022-09-07T00:56:21.885Z,19.57
2022-09-07T00:57:22.792Z,19.53
2022-09-07T00:58:23.009Z,19.45
2022-09-07T00:59:23.273Z,19.52
2022-09-07T01:00:23.905Z,19.55
2022-09-07T01:01:25.422Z,19.55
2022-09-07T01:02:26.722Z,19.48
2022-09-07T01:03:26.870Z,19.48
2022-09-07T01:04:27.496Z,19.48
2022-09-07T01:05:28.397Z,19.45
2022-09-07T01:06:29.430Z,19.55
2022-09-07T01:07:29.668Z,19.48
2022-09-07T01:08:30.429Z,19.41
2022-09-07T01:09:30.664Z,19.3
2022-09-07T01:10:31.570Z,19.45
2022-09-07T01:11:31.792Z,19.39
2022-09-07T01:12:32.993Z,19.34
2022-09-07T01:13:32.946Z,19.41
2022-09-07T01:14:33.857Z,19.35
2022-09-07T01:15:34.600Z,19.35
2022-09-07T01:16:35.718Z,19.34
2022-09-07T01:17:36.371Z,19.35
2022-09-07T01:18:37.120Z,19.37
2022-09-07T01:19:37.351Z,19.32
2022-09-07T01:20:37.550Z,19.32
2022-09-07T01:21:37.756Z,19.3
2022-09-07T01:22:38.258Z,19.3
2022-09-07T01:23:38.607Z,19.27
2022-09-07T01:24:39.551Z,19.24
2022-09-07T01:25:40.750Z,19.26
2022-09-07T01:26:41.036Z,19.24
2022-09-07T01:27:40.684Z,19.27
2022-09-07T01:28:41.907Z,19.22
2022-09-07T01:29:42.628Z,19.2
2022-09-07T01:30:43.702Z,19.19
2022-09-07T01:31:44.010Z,19.19
2022-09-07T01:32:43.942Z,19.07
2022-09-07T01:33:44.265Z,19.07
2022-09-07T01:34:45.487Z,19.04
2022-09-07T01:35:45.690Z,19.04
2022-09-07T01:36:46.274Z,19.11
2022-09-07T01:37:46.774Z,19.19
2022-09-07T01:38:47.631Z,19.11
2022-09-07T01:39:48.750Z,19.05
2022-09-07T01:40:48.582Z,19.2
2022-09-07T01:41:49.492Z,19.22
2022-09-07T01:42:50.424Z,19.17
2022-09-07T01:43:51.622Z,19.24
2022-09-07T01:44:52.542Z,19.15
2022-09-07T01:45:53.594Z,19.05
2022-09-07T01:46:54.286Z,19.12
2022-09-07T01:47:55.186Z,19.04
2022-09-07T01:48:55.088Z,19.04
2022-09-07T01:49:55.688Z,19.07
2022-09-07T01:50:56.182Z,19.09
2022-09-07T01:51:56.081Z,19.08
2022-09-07T01:52:56.717Z,19.15
2022-09-07T01:53:57.921Z,19.07
2022-09-07T01:54:58.142Z,19.05
2022-09-07T01:55:58.763Z,19.09
2022-09-07T01:56:59.489Z,19.04
2022-09-07T01:58:00.110Z,19.09
2022-09-07T01:59:01.313Z,19.11
2022-09-07T02:00:00.963Z,19.16
2022-09-07T02:01:02.166Z,19.09
2022-09-07T02:02:03.463Z,19
2022-09-07T02:03:04.157Z,19.07
2022-09-07T02:04:04.726Z,19.11
2022-09-07T02:05:04.707Z,19.16
2022-09-07T02:06:05.025Z,19.12
2022-09-07T02:07:05.893Z,19.09
2022-09-07T02:08:06.827Z,19.09
2022-09-07T02:09:07.758Z,19.07
2022-09-07T02:10:07.679Z,19.15
2022-09-07T02:11:08.955Z,19.16
2022-09-07T02:12:10.151Z,19.19
2022-09-07T02:13:10.351Z,19.23
2022-09-07T02:14:11.259Z,19.16
2022-09-07T02:15:12.187Z,19.24
2022-09-07T02:16:12.426Z,19.24
2022-09-07T02:17:12.823Z,19.22
2022-09-07T02:18:13.031Z,19.26
2022-09-07T02:19:13.692Z,19.29
2022-09-07T02:20:14.613Z,19.32
2022-09-07T02:21:15.810Z,19.34
2022-09-07T02:22:16.717Z,19.35
2022-09-07T02:23:16.355Z,19.42
2022-09-07T02:24:17.556Z,19.34
2022-09-07T02:25:18.756Z,19.38
2022-09-07T02:26:19.259Z,19.39
2022-09-07T02:27:19.139Z,19.45
2022-09-07T02:28:20.358Z,19.45
2022-09-07T02:29:21.178Z,19.41
2022-09-07T02:30:21.714Z,19.42
2022-09-07T02:31:22.810Z,19.37
2022-09-07T02:32:23.499Z,19.37
2022-09-07T02:33:24.132Z,19.42
2022-09-07T02:34:24.635Z,19.44
2022-09-07T02:35:25.131Z,19.37
2022-09-07T02:36:25.331Z,19.34
2022-09-07T02:37:25.341Z,19.44
2022-09-07T02:38:26.282Z,19.47
2022-09-07T02:39:26.505Z,19.39
2022-09-07T02:40:27.528Z,19.44
2022-09-07T02:41:28.748Z,19.49
2022-09-07T02:42:29.146Z,19.52
2022-09-07T02:43:30.348Z,19.53
2022-09-07T02:44:30.850Z,19.55
2022-09-07T02:45:31.751Z,19.52
2022-09-07T02:46:32.209Z,19.53
2022-09-07T02:47:32.506Z,19.49
2022-09-07T02:48:33.468Z,19.62
2022-09-07T02:49:34.368Z,19.48
2022-09-07T02:50:34.266Z,19.53
2022-09-07T02:51:35.466Z,19.52
2022-09-07T02:52:35.667Z,19.56
2022-09-07T02:53:36.166Z,19.49
2022-09-07T02:54:36.079Z,19.49
2022-09-07T02:55:36.580Z,19.48
2022-09-07T02:56:36.487Z,19.55
2022-09-07T02:57:36.943Z,19.57
2022-09-07T02:58:37.148Z,19.48
2022-09-07T02:59:37.793Z,19.53
2022-09-07T03:00:39.018Z,19.42
2022-09-07T03:01:40.173Z,19.42
2022-09-07T03:02:40.635Z,19.47
2022-09-07T03:03:40.760Z,19.49
2022-09-07T03:04:41.686Z,19.41
2022-09-07T03:05:41.936Z,19.45
2022-09-07T03:06:42.441Z,19.32
2022-09-07T03:07:45.635Z,19.42
2022-09-07T03:08:43.312Z,19.42
2022-09-07T03:09:44.512Z,19.35
2022-09-07T03:10:44.172Z,19.45
2022-09-07T03:11:45.670Z,19.47
2022-09-07T03:12:45.606Z,19.45
2022-09-07T03:13:45.928Z,19.52
2022-09-07T03:14:46.857Z,19.48
2022-09-07T03:15:47.244Z,19.53
2022-09-07T03:16:48.119Z,19.48
2022-09-07T03:17:49.120Z,19.48
2022-09-07T03:18:49.624Z,19.56
2022-09-07T03:19:50.123Z,19.56
2022-09-07T03:20:50.750Z,19.57
2022-09-07T03:21:51.978Z,19.48
2022-09-07T03:22:52.616Z,19.49
2022-09-07T03:23:57.692Z,19.53
2022-09-07T03:24:53.318Z,19.45
2022-09-07T03:25:53.515Z,19.47
2022-09-07T03:26:54.014Z,19.45
2022-09-07T03:27:54.744Z,19.49
2022-09-07T03:28:54.968Z,19.45
2022-09-07T03:29:55.473Z,19.44
2022-09-07T03:30:55.766Z,19.56
2022-09-07T03:31:56.178Z,19.52
2022-09-07T03:32:56.503Z,19.52
2022-09-07T03:33:57.706Z,19.55
2022-09-07T03:34:57.634Z,19.45
2022-09-07T03:35:58.964Z,19.45
2022-09-07T03:36:59.862Z,19.47
2022-09-07T03:38:00.617Z,19.47
2022-09-07T03:39:00.838Z,19.38
2022-09-07T03:40:01.413Z,19.42
2022-09-07T03:41:01.228Z,19.38
2022-09-07T03:42:02.152Z,19.38
2022-09-07T03:43:02.656Z,19.34
2022-09-07T03:44:02.859Z,19.38
2022-09-07T03:45:03.090Z,19.29
2022-09-07T03:46:03.769Z,19.27
2022-09-07T03:47:04.437Z,19.3
2022-09-07T03:48:05.160Z,19.2
2022-09-07T03:49:06.358Z,19.24
2022-09-07T03:50:07.280Z,19.22
2022-09-07T03:51:07.201Z,19.19
2022-09-07T03:52:08.715Z,19.26
2022-09-07T03:53:08.639Z,19.22
2022-09-07T03:54:08.839Z,19.22
2022-09-07T03:55:09.762Z,19.11
2022-09-07T03:56:09.983Z,19.09
2022-09-07T03:57:10.625Z,19.08
2022-09-07T03:58:11.075Z,19.09
2022-09-07T03:59:12.017Z,19.08
2022-09-07T04:00:12.236Z,19.05
2022-09-07T04:01:13.195Z,19.04
2022-09-07T04:02:13.822Z,19.08
2022-09-07T04:03:14.468Z,19.05
2022-09-07T04:04:14.668Z,19.04
2022-09-07T04:05:15.584Z,18.92
2022-09-07T04:06:15.773Z,18.91
2022-09-07T04:07:15.971Z,18.98
2022-09-07T04:08:16.701Z,18.94
2022-09-07T04:09:17.989Z,18.88
2022-09-07T04:10:18.645Z,18.86
2022-09-07T04:11:19.567Z,18.92
2022-09-07T04:12:19.514Z,18.86
2022-09-07T04:13:20.438Z,18.89
2022-09-07T04:14:21.062Z,18.89
2022-09-07T04:15:21.981Z,18.92
2022-09-07T04:16:22.199Z,18.88
2022-09-07T04:17:23.574Z,18.86
2022-09-07T04:18:24.328Z,18.89
2022-09-07T04:19:24.505Z,18.94
2022-09-07T04:20:25.700Z,19.04
2022-09-07T04:21:26.199Z,18.88
2022-09-07T04:22:26.417Z,18.96
2022-09-07T04:23:26.620Z,19
2022-09-07T04:24:27.117Z,18.91
2022-09-07T04:25:27.039Z,18.89
2022-09-07T04:26:27.259Z,18.94
2022-09-07T04:27:28.205Z,18.94
2022-09-07T04:28:28.418Z,19.01
2022-09-07T04:29:28.791Z,19.04
2022-09-07T04:30:30.098Z,19
2022-09-07T04:31:29.817Z,19.07
2022-09-07T04:32:31.015Z,19.04
2022-09-07T04:33:31.507Z,18.96
2022-09-07T04:34:31.704Z,18.88
2022-09-07T04:35:32.202Z,18.94
2022-09-07T04:36:32.401Z,18.91
2022-09-07T04:37:33.597Z,18.89
2022-09-07T04:38:33.332Z,18.96
2022-09-07T04:39:34.394Z,18.92
2022-09-07T04:40:35.439Z,18.91
2022-09-07T04:41:35.939Z,18.98
2022-09-07T04:42:36.438Z,18.91
2022-09-07T04:43:36.777Z,18.91
2022-09-07T04:44:37.380Z,18.86
2022-09-07T04:45:38.001Z,18.86
2022-09-07T04:46:39.059Z,18.89
2022-09-07T04:47:40.272Z,18.83
2022-09-07T04:48:41.282Z,18.86
2022-09-07T04:49:42.184Z,18.91
2022-09-07T04:50:43.129Z,18.92
2022-09-07T04:51:43.629Z,18.98
2022-09-07T04:52:43.562Z,18.92
2022-09-07T04:53:44.871Z,18.94
2022-09-07T04:54:45.379Z,18.88
2022-09-07T04:55:45.583Z,18.86
2022-09-07T04:56:45.790Z,18.89
2022-09-07T04:57:46.712Z,18.92
2022-09-07T04:58:47.157Z,18.96
2022-09-07T04:59:47.654Z,19.01
2022-09-07T05:00:48.356Z,18.96
2022-09-07T05:01:48.637Z,18.97
2022-09-07T05:02:49.580Z,18.96
2022-09-07T05:03:49.282Z,18.98
2022-09-07T05:04:49.781Z,19
2022-09-07T05:05:50.176Z,18.97
2022-09-07T05:06:51.103Z,18.98
2022-09-07T05:07:51.327Z,19.01
2022-09-07T05:08:51.158Z,19.11
2022-09-07T05:09:52.367Z,19.07
2022-09-07T05:10:52.616Z,19.11
2022-09-07T05:11:53.521Z,19.08
2022-09-07T05:12:54.034Z,19.07
2022-09-07T05:13:54.366Z,19.04
2022-09-07T05:14:55.293Z,19.19
2022-09-07T05:15:56.218Z,19.19
2022-09-07T05:16:56.704Z,19.09
2022-09-07T05:17:56.714Z,19.12
2022-09-07T05:18:57.166Z,19.11
2022-09-07T05:19:58.087Z,19.12
2022-09-07T05:20:58.288Z,19.09
2022-09-07T05:21:59.193Z,19.17
2022-09-07T05:22:59.093Z,19.09
2022-09-07T05:24:00.020Z,19.04
2022-09-07T05:25:01.225Z,19.07
2022-09-07T05:26:01.152Z,19.15
2022-09-07T05:27:02.659Z,19.2
2022-09-07T05:28:02.861Z,19.23
2022-09-07T05:30:03.244Z,19.29
2022-09-07T05:31:26.654Z,19.24
2022-09-07T05:32:27.277Z,19.22
2022-09-07T05:34:29.833Z,19.24
2022-09-07T05:34:52.819Z,19.3
2022-09-07T05:35:48.280Z,19.29
2022-09-07T05:36:48.203Z,19.23
2022-09-07T05:37:49.711Z,19.24
2022-09-07T05:38:49.933Z,19.26
2022-09-07T05:39:50.598Z,19.17
2022-09-07T05:40:51.483Z,19.23
2022-09-07T05:41:52.393Z,19.17
2022-09-07T05:42:52.028Z,19.19
2022-09-07T05:44:52.625Z,19.17
2022-09-07T05:45:09.276Z,19.17
2022-09-07T05:46:10.461Z,19.19
2022-09-07T05:47:10.264Z,19.2
2022-09-07T05:48:11.200Z,19.22
2022-09-07T05:49:11.705Z,19.24
2022-09-07T05:50:11.907Z,19.19
2022-09-07T05:51:12.915Z,19.26
2022-09-07T05:52:12.859Z,19.22
2022-09-07T05:53:13.366Z,19.26
2022-09-07T05:54:13.574Z,19.26
2022-09-07T05:55:35.464Z,19.27
2022-09-07T05:56:15.694Z,19.24
2022-09-07T05:57:16.381Z,19.26
2022-09-07T05:58:16.900Z,19.22
2022-09-07T05:59:17.460Z,19.26
2022-09-07T06:00:17.962Z,19.2
2022-09-07T06:01:17.783Z,19.23
2022-09-07T06:02:18.915Z,19.2
2022-09-07T06:03:20.063Z,19.2
2022-09-07T06:04:20.503Z,19.19
2022-09-07T06:05:21.426Z,19.19
2022-09-07T06:06:21.632Z,19.23
2022-09-07T06:07:27.839Z,19.16
2022-09-07T06:08:22.044Z,19.2
2022-09-07T06:09:23.400Z,19.19
2022-09-07T06:10:52.569Z,19.27
2022-09-07T06:11:40.310Z,19.29
2022-09-07T06:12:42.458Z,19.24
2022-09-07T06:13:41.347Z,19.27
2022-09-07T06:14:41.579Z,19.24
2022-09-07T06:15:42.509Z,19.29
2022-09-07T06:16:42.659Z,19.24
2022-09-07T06:17:43.143Z,19.24
2022-09-07T06:18:44.084Z,19.24
2022-09-07T06:19:45.288Z,19.27
2022-09-07T06:20:45.508Z,19.23
2022-09-07T06:21:46.278Z,19.23
2022-09-07T06:22:46.911Z,19.26
2022-09-07T06:23:47.548Z,19.29
2022-09-07T06:24:47.897Z,19.29
2022-09-07T06:25:48.403Z,19.41
2022-09-07T06:26:48.602Z,19.44
2022-09-07T06:27:49.504Z,19.47
2022-09-07T06:28:58.353Z,19.57
2022-09-07T06:29:50.279Z,19.7
2022-09-07T06:30:50.913Z,19.77
2022-09-07T06:32:51.068Z,20.29
2022-09-07T06:33:08.277Z,20.37
2022-09-07T06:34:09.476Z,20.68
2022-09-07T06:35:09.417Z,20.74
2022-09-07T06:36:10.649Z,21.03
2022-09-07T06:37:10.562Z,21.17
2022-09-07T06:38:11.788Z,21.11
2022-09-07T06:39:11.723Z,21.11
2022-09-07T06:40:12.531Z,21.03
2022-09-07T06:42:11.907Z,20.85
2022-09-07T06:42:59.384Z,20.89
2022-09-07T06:43:59.603Z,20.95
2022-09-07T06:44:59.662Z,20.89
2022-09-07T06:47:16.952Z,20.83
2022-09-07T06:48:18.177Z,20.8
2022-09-07T06:49:18.376Z,20.98
2022-09-07T06:50:18.635Z,21.13
2022-09-07T06:51:18.862Z,21.29
2022-09-07T06:52:19.071Z,21.5
2022-09-07T06:53:45.252Z,21.62
2022-09-07T06:55:02.091Z,21.62
2022-09-07T06:56:02.607Z,21.68
2022-09-07T06:57:02.808Z,21.51
2022-09-07T06:58:03.043Z,21.65
2022-09-07T06:59:03.951Z,21.78
2022-09-07T07:00:04.902Z,21.96
2022-09-07T07:01:05.478Z,21.88
2022-09-07T07:02:06.194Z,21.91
2022-09-07T07:03:06.332Z,21.88
2022-09-07T07:04:07.162Z,21.75
2022-09-07T07:05:07.387Z,21.72
2022-09-07T07:06:07.591Z,21.7
2022-09-07T07:07:07.797Z,21.66
2022-09-07T07:08:09.012Z,21.59
2022-09-07T07:09:08.653Z,21.54
2022-09-07T07:10:09.649Z,21.48
2022-09-07T07:11:09.824Z,21.4
2022-09-07T07:12:10.181Z,21.29
2022-09-07T07:13:11.107Z,21.25
2022-09-07T07:14:11.555Z,21.17
2022-09-07T07:15:12.190Z,21.14
2022-09-07T07:16:13.600Z,21.19
2022-09-07T07:17:14.138Z,21.03
2022-09-07T07:18:26.763Z,21.03
2022-09-07T07:19:14.968Z,21.04
2022-09-07T07:20:16.185Z,20.98
2022-09-07T07:21:16.118Z,20.92
2022-09-07T07:22:50.950Z,20.95
2022-09-07T07:23:16.877Z,20.89
2022-09-07T07:24:17.982Z,21
2022-09-07T07:25:17.915Z,21
2022-09-07T07:26:18.837Z,20.92
2022-09-07T07:27:18.766Z,20.89
2022-09-07T07:29:04.858Z,21.04
2022-09-07T07:29:28.630Z,21.01
2022-09-07T07:30:25.261Z,20.95
2022-09-07T07:31:26.216Z,21.03
2022-09-07T07:32:27.118Z,21.05
2022-09-07T07:33:27.759Z,21.03
2022-09-07T07:34:28.981Z,21.11
2022-09-07T07:35:29.150Z,21.13
2022-09-07T07:36:29.368Z,21.26
2022-09-07T07:37:33.886Z,21.33
2022-09-07T07:39:02.662Z,21.48
2022-09-07T07:40:36.185Z,21.63
2022-09-07T07:42:02.970Z,21.62
2022-09-07T07:42:57.759Z,21.62
2022-09-07T07:43:58.397Z,21.66
2022-09-07T07:46:01.269Z,21.72
2022-09-07T07:46:52.204Z,21.7
2022-09-07T07:47:53.011Z,21.72
2022-09-07T07:48:52.937Z,21.66
2022-09-07T07:50:32.278Z,21.83
2022-09-07T07:50:54.091Z,21.8
2022-09-07T07:53:56.298Z,21.94
2022-09-07T07:54:55.709Z,21.91
2022-09-07T07:55:56.333Z,21.83
2022-09-07T07:56:56.285Z,21.94
2022-09-07T07:57:56.992Z,22.03
2022-09-07T07:58:57.618Z,22.04
2022-09-07T07:59:58.581Z,22.1
2022-09-07T08:01:01.565Z,22.14
2022-09-07T08:02:00.109Z,22.26
2022-09-07T08:03:00.751Z,22.15
2022-09-07T08:04:01.392Z,22.08
2022-09-07T08:05:02.124Z,22.19
2022-09-07T08:06:02.111Z,22.15
2022-09-07T08:07:11.099Z,22.12
2022-09-07T08:08:04.300Z,22.18
2022-09-07T08:09:04.923Z,22.19
2022-09-07T08:10:04.846Z,22.25
2022-09-07T08:11:05.071Z,22.14
2022-09-07T08:12:06.022Z,22.12
2022-09-07T08:13:06.244Z,22.26
2022-09-07T08:14:07.471Z,22.23
2022-09-07T08:15:08.703Z,22.28
2022-09-07T08:16:08.748Z,22.22
2022-09-07T08:17:08.826Z,22.19
2022-09-07T08:18:09.035Z,22.25
2022-09-07T08:19:10.574Z,22.25
2022-09-07T08:20:11.510Z,22.28
2022-09-07T08:21:11.829Z,22.21
2022-09-07T08:22:11.779Z,22.22
2022-09-07T08:23:12.706Z,22.18
2022-09-07T08:24:13.695Z,22.23
2022-09-07T08:25:14.907Z,22.25
2022-09-07T08:26:15.118Z,22.23
2022-09-07T08:27:15.776Z,22.23
2022-09-07T08:28:16.219Z,22.37
2022-09-07T08:29:16.846Z,22.41
2022-09-07T08:30:17.859Z,22.43
2022-09-07T08:31:18.346Z,22.52
2022-09-07T08:32:18.430Z,22.51
2022-09-07T08:33:19.656Z,22.61
2022-09-07T08:34:20.018Z,22.65
2022-09-07T08:35:20.328Z,22.73
2022-09-07T08:36:21.669Z,22.74
2022-09-07T08:37:21.804Z,22.8
2022-09-07T08:38:26.462Z,22.73
2022-09-07T08:39:22.808Z,22.76
2022-09-07T08:40:23.233Z,22.78
2022-09-07T08:41:23.735Z,22.8
2022-09-07T08:42:24.393Z,22.77
2022-09-07T08:43:24.650Z,22.73
2022-09-07T08:44:24.679Z,22.77
2022-09-07T08:45:24.866Z,22.78
2022-09-07T08:46:25.651Z,22.81
2022-09-07T08:47:26.261Z,22.88
2022-09-07T08:48:27.301Z,22.7
2022-09-07T08:49:28.817Z,22.76
2022-09-07T08:50:29.356Z,22.7
2022-09-07T08:51:30.071Z,22.71
2022-09-07T08:52:30.316Z,22.71
2022-09-07T08:53:31.326Z,22.61
2022-09-07T08:54:31.936Z,22.7
2022-09-07T08:55:31.849Z,22.68
2022-09-07T08:56:39.279Z,22.76
2022-09-07T08:57:32.475Z,22.8
2022-09-07T08:58:56.373Z,22.91
2022-09-07T08:59:56.026Z,22.95
2022-09-07T09:01:33.709Z,22.96
2022-09-07T09:02:44.715Z,22.93
2022-09-07T09:06:12.320Z,22.95
2022-09-07T09:06:30.618Z,22.92
2022-09-07T09:07:29.889Z,22.83
2022-09-07T09:08:30.817Z,22.77
2022-09-07T09:09:32.026Z,22.83
2022-09-07T09:10:32.240Z,22.73
2022-09-07T09:11:32.865Z,22.74
2022-09-07T09:12:38.028Z,22.76
2022-09-07T09:13:34.314Z,22.76
2022-09-07T09:14:34.243Z,22.7
2022-09-07T09:15:35.541Z,22.78
2022-09-07T09:16:36.108Z,22.59
2022-09-07T09:17:36.268Z,22.56
2022-09-07T09:18:36.445Z,22.61
2022-09-07T09:19:37.953Z,22.58
2022-09-07T09:20:37.904Z,22.62
2022-09-07T09:21:38.986Z,22.62
2022-09-07T09:22:38.655Z,22.56
2022-09-07T09:23:40.169Z,22.58
2022-09-07T09:24:40.798Z,22.52
2022-09-07T09:25:41.725Z,22.49
2022-09-07T09:26:42.490Z,22.55
2022-09-07T09:27:42.040Z,22.49
2022-09-07T09:28:43.235Z,22.49
2022-09-07T09:29:43.735Z,22.51
2022-09-07T09:30:44.652Z,22.41
2022-09-07T09:31:45.606Z,22.46
2022-09-07T09:32:46.290Z,22.46
2022-09-07T09:33:47.502Z,22.47
2022-09-07T09:34:47.412Z,22.51
2022-09-07T09:35:48.378Z,22.58
2022-09-07T09:36:48.906Z,22.47
2022-09-07T09:37:48.915Z,22.44
2022-09-07T09:38:49.115Z,22.46
2022-09-07T09:39:56.177Z,22.58
2022-09-07T09:40:50.990Z,22.55
2022-09-07T09:41:51.729Z,22.55
2022-09-07T09:42:52.640Z,22.63
2022-09-07T09:43:53.550Z,22.63
2022-09-07T09:44:53.462Z,22.56
2022-09-07T09:46:24.515Z,22.65
2022-09-07T09:47:35.657Z,22.68
2022-09-07T09:47:56.487Z,22.67
2022-09-07T09:48:57.090Z,22.61
2022-09-07T09:49:57.438Z,22.59
2022-09-07T09:53:28.808Z,22.56
2022-09-07T09:54:29.071Z,22.65
2022-09-07T09:55:40.529Z,22.68
2022-09-07T09:56:30.440Z,22.71
2022-09-07T09:57:31.168Z,22.76
2022-09-07T10:01:22.234Z,22.92
2022-09-07T10:04:00.953Z,22.98
2022-09-07T10:04:30.467Z,23.06
2022-09-07T10:05:26.724Z,23.06
2022-09-07T10:06:27.482Z,23.13
2022-09-07T10:07:27.862Z,23.16
2022-09-07T10:08:29.252Z,23.25
2022-09-07T10:09:29.541Z,23.32
2022-09-07T10:10:30.177Z,23.32
2022-09-07T10:12:10.880Z,23.17
2022-09-07T10:12:31.085Z,23.28
2022-09-07T10:13:31.006Z,23.23
2022-09-07T10:14:30.927Z,23.28
2022-09-07T10:15:40.355Z,23.26
2022-09-07T10:16:32.858Z,23.32
2022-09-07T10:17:33.118Z,23.25
2022-09-07T10:18:33.819Z,23.28
2022-09-07T10:19:34.451Z,23.23
2022-09-07T10:20:35.062Z,23.25
2022-09-07T10:21:36.033Z,23.29
2022-09-07T10:22:36.938Z,23.26
2022-09-07T10:23:36.784Z,23.28
2022-09-07T10:24:38.087Z,23.2
2022-09-07T10:25:38.325Z,23.23
2022-09-07T10:26:39.646Z,23.39
2022-09-07T10:27:39.849Z,23.32
2022-09-07T10:29:10.708Z,23.37
2022-09-07T10:29:41.720Z,23.33
2022-09-07T10:30:42.032Z,23.32
2022-09-07T10:31:42.783Z,23.37
2022-09-07T10:32:42.725Z,23.45
2022-09-07T10:33:43.220Z,23.51
2022-09-07T10:34:43.362Z,23.47
2022-09-07T10:35:44.564Z,23.58
2022-09-07T10:36:45.039Z,23.52
2022-09-07T10:37:45.965Z,23.64
2022-09-07T10:38:46.692Z,23.69
2022-09-07T10:39:47.541Z,23.82
2022-09-07T10:40:48.317Z,23.92
2022-09-07T10:41:48.271Z,23.96
2022-09-07T10:43:26.228Z,24.13
2022-09-07T10:43:49.453Z,24.16
2022-09-07T10:44:50.106Z,24.29
2022-09-07T10:45:50.979Z,24.34
2022-09-07T10:47:07.830Z,24.4
2022-09-07T10:47:52.373Z,24.61
2022-09-07T10:48:52.725Z,24.63
2022-09-07T10:50:24.039Z,24.56
2022-09-07T10:50:54.761Z,24.65
2022-09-07T10:51:55.242Z,24.69
2022-09-07T10:52:55.898Z,24.82
2022-09-07T10:54:36.754Z,24.96
2022-09-07T10:54:57.162Z,25.01
2022-09-07T10:55:57.670Z,25.03
2022-09-07T10:56:58.662Z,25.19
2022-09-07T10:57:58.607Z,25.34
2022-09-07T10:59:14.846Z,25.49
2022-09-07T11:00:16.336Z,25.56
2022-09-07T11:00:59.847Z,25.59
2022-09-07T11:02:00.966Z,25.76
2022-09-07T11:03:31.560Z,25.92
2022-09-07T11:04:02.321Z,26.01
2022-09-07T11:05:02.006Z,26.06
2022-09-07T11:06:03.243Z,26.16
2022-09-07T11:07:03.690Z,26.19
2022-09-07T11:08:04.115Z,26.27
2022-09-07T11:09:34.458Z,26.45
2022-09-07T11:10:05.643Z,26.48
2022-09-07T11:11:05.606Z,26.55
2022-09-07T11:12:07.859Z,26.64
2022-09-07T11:13:07.499Z,26.66
2022-09-07T11:14:19.029Z,26.73
2022-09-07T11:15:09.535Z,26.7
2022-09-07T11:16:51.288Z,26.7
2022-09-07T11:17:40.202Z,26.68
2022-09-07T11:18:40.073Z,26.79
2022-09-07T11:19:41.589Z,26.96
2022-09-07T11:20:41.520Z,26.86
2022-09-07T11:22:11.847Z,26.97
2022-09-07T11:22:42.761Z,26.98
2022-09-07T11:23:46.902Z,26.98
2022-09-07T11:24:44.158Z,27
2022-09-07T11:25:46.568Z,27.03
2022-09-07T11:26:44.150Z,26.96
2022-09-07T11:27:45.167Z,26.96
2022-09-07T11:28:46.478Z,26.93
2022-09-07T11:29:46.724Z,26.97
2022-09-07T11:30:48.214Z,26.97
2022-09-07T11:31:48.182Z,26.93
2022-09-07T11:32:49.391Z,26.96
2022-09-07T11:34:29.687Z,26.93
2022-09-07T11:34:52.752Z,26.89
2022-09-07T11:35:51.971Z,27
2022-09-07T11:36:53.191Z,27.03
2022-09-07T11:37:53.310Z,27.13
2022-09-07T11:38:53.815Z,27.23
2022-09-07T11:39:54.120Z,27.25
2022-09-07T11:40:54.824Z,27.44
2022-09-07T11:41:55.588Z,27.43
2022-09-07T11:42:56.153Z,27.5
2022-09-07T11:43:56.983Z,27.58
2022-09-07T11:44:57.483Z,27.63
2022-09-07T11:45:58.230Z,27.5
2022-09-07T11:46:58.017Z,27.63
2022-09-07T11:47:58.437Z,27.44
2022-09-07T11:48:58.794Z,27.4
2022-09-07T11:50:04.648Z,27.41
2022-09-07T11:51:00.583Z,27.26
2022-09-07T11:52:05.667Z,27.3
2022-09-07T11:53:01.341Z,27.4
2022-09-07T11:54:02.266Z,27.41
2022-09-07T11:55:03.201Z,27.45
2022-09-07T11:56:03.615Z,27.52
2022-09-07T11:57:04.135Z,27.6
2022-09-07T11:58:04.265Z,27.64
2022-09-07T11:59:20.270Z,27.6
2022-09-07T12:00:05.784Z,27.71
2022-09-07T12:01:06.751Z,27.68
2022-09-07T12:02:06.825Z,27.78
2022-09-07T12:03:07.814Z,27.91
2022-09-07T12:04:15.520Z,28.04
2022-09-07T12:05:08.976Z,28.09
2022-09-07T12:06:08.912Z,28.23
2022-09-07T12:07:10.121Z,28.43
2022-09-07T12:08:10.814Z,28.52
2022-09-07T12:09:11.492Z,28.65
2022-09-07T12:10:12.397Z,28.72
2022-09-07T12:11:13.657Z,28.92
2022-09-07T12:12:14.429Z,28.96
2022-09-07T12:13:15.081Z,29.1
2022-09-07T12:14:16.016Z,29.13
2022-09-07T12:15:16.430Z,29.16
2022-09-07T12:16:17.417Z,29.32
2022-09-07T12:17:19.735Z,29.34
2022-09-07T12:18:18.766Z,29.37
2022-09-07T12:19:19.025Z,29.4
2022-09-07T12:20:19.962Z,29.2
2022-09-07T12:21:20.324Z,29.15
2022-09-07T12:22:20.839Z,29.12
2022-09-07T12:23:21.769Z,29.09
2022-09-07T12:24:21.727Z,29.1
2022-09-07T12:25:22.640Z,29.07
2022-09-07T12:26:23.680Z,29.15
2022-09-07T12:27:23.924Z,29.22
2022-09-07T12:28:28.072Z,29.31
2022-09-07T12:29:25.158Z,29.25
2022-09-07T12:30:25.824Z,29.18
2022-09-07T12:31:39.846Z,29.15
2022-09-07T12:33:05.682Z,29.07
2022-09-07T12:34:05.344Z,29.1
2022-09-07T12:35:06.565Z,29.06
2022-09-07T12:36:07.519Z,29.03
2022-09-07T12:37:12.685Z,28.87
2022-09-07T12:38:07.670Z,28.75
2022-09-07T12:39:08.402Z,28.65
2022-09-07T12:40:09.289Z,28.53
2022-09-07T12:41:10.051Z,28.49
2022-09-07T12:42:41.350Z,28.55
2022-09-07T12:43:15.993Z,28.49
2022-09-07T12:44:11.730Z,28.65
2022-09-07T12:45:12.827Z,28.67
2022-09-07T12:46:13.539Z,28.7
2022-09-07T12:47:14.177Z,28.67
2022-09-07T12:48:14.113Z,28.6
2022-09-07T12:49:14.515Z,28.8
2022-09-07T12:50:16.159Z,28.87
2022-09-07T12:51:16.556Z,28.89
2022-09-07T12:52:21.404Z,29.06
2022-09-07T12:53:16.333Z,29.16
2022-09-07T12:54:17.548Z,29.25
2022-09-07T12:56:16.986Z,29.43
2022-09-07T12:56:34.396Z,29.47
2022-09-07T12:57:35.627Z,29.58
2022-09-07T12:58:35.342Z,29.59
2022-09-07T12:59:36.329Z,29.64
2022-09-07T13:00:36.537Z,29.69
2022-09-07T13:01:36.920Z,29.83
2022-09-07T13:02:37.374Z,29.94
2022-09-07T13:04:07.332Z,29.95
2022-09-07T13:04:38.009Z,30.02
2022-09-07T13:05:39.296Z,30.08
2022-09-07T13:07:08.917Z,30.11
2022-09-07T13:07:39.838Z,30.16
2022-09-07T13:08:39.769Z,30.2
2022-09-07T13:09:40.766Z,30.26
2022-09-07T13:10:41.008Z,30.32
2022-09-07T13:11:41.643Z,30.46
2022-09-07T13:13:13.562Z,30.43
2022-09-07T13:14:11.362Z,30.54
2022-09-07T13:15:00.989Z,30.49
2022-09-07T13:16:01.868Z,30.52
2022-09-07T13:17:32.946Z,30.55
2022-09-07T13:18:03.299Z,30.59
2022-09-07T13:19:03.511Z,30.71
2022-09-07T13:20:03.965Z,30.67
2022-09-07T13:21:04.596Z,30.56
2022-09-07T13:22:05.105Z,30.76
2022-09-07T13:23:05.899Z,30.74
2022-09-07T13:24:52.337Z,30.73